Time;durP1;ratioP1;P1;durP2;ratioP2;P2;SDS_P1;SDS_P2;PMS_P1;PMS_P2;Temp;Humidity;BMP_temperature;BMP_pressure;BME280_temperature;BME280_humidity;BME280_pressure;Samples;Min_cycle;Max_cycle;Signal;HPM_P1;HPM_P2
2022/09/23 00:01:17;;;;;;;7.70;5.63;;;;;;;9.13;76.11;98537.63;4952056;29;20053;-88
2022/09/23 00:03:45;;;;;;;6.55;5.63;;;;;;;9.07;75.68;98531.31;4956733;28;20077;-87
2022/09/23 00:06:19;;;;;;;6.40;5.40;;;;;;;9.15;76.37;98542.69;4967050;28;20051;-89
2022/09/23 00:08:48;;;;;;;6.22;5.03;;;;;;;9.03;76.50;98542.31;4951802;28;20407;-88
2022/09/23 00:11:21;;;;;;;6.75;5.10;;;;;;;8.84;76.63;98527.94;4952275;29;20043;-88
2022/09/23 00:13:54;;;;;;;5.88;5.30;;;;;;;8.84;76.66;98533.97;4950876;28;20071;-88
2022/09/23 00:16:25;;;;;;;6.70;5.05;;;;;;;8.93;76.77;98542.56;4966857;28;20068;-88
2022/09/23 00:18:52;;;;;;;6.35;5.30;;;;;;;8.85;77.14;98540.84;4952189;28;20047;-89
2022/09/23 00:21:21;;;;;;;6.15;5.10;;;;;;;8.92;77.62;98540.13;4967265;28;20051;-88
2022/09/23 00:23:48;;;;;;;5.97;5.25;;;;;;;8.89;77.29;98541.31;4949056;29;20110;-87
2022/09/23 00:26:19;;;;;;;5.53;4.90;;;;;;;8.81;77.38;98529.09;4952793;28;20075;-89
2022/09/23 00:28:47;;;;;;;5.50;4.90;;;;;;;8.79;77.65;98527.66;4953333;28;20051;-87
2022/09/23 00:31:21;;;;;;;5.15;4.65;;;;;;;8.72;78.98;98527.56;4952215;28;20051;-87
2022/09/23 00:33:59;;;;;;;5.40;4.90;;;;;;;8.73;78.96;98539.63;4945881;28;20122;-87
2022/09/23 00:36:28;;;;;;;5.53;4.95;;;;;;;8.77;78.06;98533.06;4952306;28;20053;-87
2022/09/23 00:38:54;;;;;;;8.02;4.78;;;;;;;8.92;77.65;98534.88;4941675;28;20135;-87
2022/09/23 00:41:22;;;;;;;5.30;4.80;;;;;;;8.91;77.19;98528.03;4952435;28;20970;-88
2022/09/23 00:43:57;;;;;;;6.32;4.70;;;;;;;8.74;76.81;98522.94;4950466;29;20151;-88
2022/09/23 00:46:42;;;;;;;6.13;4.85;;;;;;;8.73;77.12;98516.09;4941479;28;20049;-88
2022/09/23 00:49:21;;;;;;;6.80;5.07;;;;;;;8.72;76.75;98519.72;4933221;29;20494;-87
2022/09/23 00:52:05;;;;;;;5.68;4.88;;;;;;;8.62;77.45;98498.22;4952910;28;20039;-88
2022/09/23 00:54:32;;;;;;;6.40;5.00;;;;;;;8.65;77.91;98510.97;4962969;28;20047;-87
2022/09/23 00:57:02;;;;;;;8.35;4.95;;;;;;;8.77;78.52;98508.72;4952030;28;20051;-87
2022/09/23 00:59:29;;;;;;;6.22;4.65;;;;;;;8.62;77.67;98521.75;4952621;28;20406;-87
2022/09/23 01:01:59;;;;;;;5.43;4.93;;;;;;;8.55;77.84;98519.03;4952547;28;20042;-87
2022/09/23 01:04:29;;;;;;;5.05;4.55;;;;;;;8.51;77.32;98512.53;4954204;28;20098;-88
2022/09/23 01:06:55;;;;;;;7.43;4.75;;;;;;;8.50;77.59;98500.44;4943262;28;20558;-87
2022/09/23 01:09:24;;;;;;;6.20;4.82;;;;;;;8.51;78.13;98503.88;4948476;29;20394;-87
2022/09/23 01:12:25;;;;;;;5.40;4.68;;;;;;;8.53;78.03;98504.53;4952610;28;20079;-87
2022/09/23 01:15:07;;;;;;;6.95;4.35;;;;;;;8.63;77.50;98502.44;4953753;28;20047;-87
2022/09/23 01:18:05;;;;;;;4.70;3.83;;;;;;;8.60;77.52;98507.25;4951854;29;20074;-87
2022/09/23 01:21:22;;;;;;;5.97;4.53;;;;;;;8.45;77.79;98497.53;4971083;28;20051;-87
2022/09/23 01:24:25;;;;;;;5.30;4.65;;;;;;;8.49;77.63;98506.66;4935510;29;20563;-87
2022/09/23 01:27:08;;;;;;;6.47;4.95;;;;;;;8.27;77.31;98495.19;4918320;29;20051;-87
2022/09/23 01:30:18;;;;;;;5.55;4.75;;;;;;;8.38;78.36;98506.28;4950077;28;20426;-87
2022/09/23 01:33:06;;;;;;;5.68;4.30;;;;;;;8.37;78.06;98500.22;4947847;29;20134;-87
2022/09/23 01:36:01;;;;;;;4.68;4.20;;;;;;;8.31;77.99;98500.91;4936048;29;20040;-87
2022/09/23 01:38:41;;;;;;;5.07;4.40;;;;;;;8.29;77.86;98508.94;4951079;29;20047;-87
2022/09/23 01:41:14;;;;;;;6.07;4.85;;;;;;;8.33;77.91;98510.19;4945011;29;20127;-87
2022/09/23 01:44:03;;;;;;;5.50;4.68;;;;;;;8.30;77.75;98504.50;4955791;28;20119;-86
2022/09/23 01:47:09;;;;;;;5.22;4.55;;;;;;;8.30;77.51;98500.09;4956569;28;20050;-87
2022/09/23 01:49:59;;;;;;;5.53;3.85;;;;;;;8.26;77.22;98490.97;4950758;29;20089;-87
2022/09/23 01:52:39;;;;;;;4.50;3.92;;;;;;;8.28;77.30;98502.06;4955553;28;20039;-88
2022/09/23 01:55:34;;;;;;;3.97;3.63;;;;;;;8.29;76.78;98489.81;4954972;28;20043;-87
2022/09/23 01:58:14;;;;;;;4.75;4.15;;;;;;;8.21;77.25;98482.84;4936190;29;20062;-87
2022/09/23 02:00:57;;;;;;;5.63;4.10;;;;;;;8.24;77.88;98487.72;4950109;29;20081;-87
2022/09/23 02:03:58;;;;;;;8.07;4.30;;;;;;;8.14;77.42;98483.72;4954307;29;20040;-87
2022/09/23 02:06:35;;;;;;;5.20;4.13;;;;;;;8.12;77.86;98486.50;4952739;29;20039;-87
2022/09/23 02:09:10;;;;;;;5.93;4.40;;;;;;;8.03;77.56;98471.88;4967926;28;20518;-87
2022/09/23 02:11:40;;;;;;;4.80;4.22;;;;;;;8.09;77.58;98480.81;4954984;28;20047;-87
2022/09/23 02:14:24;;;;;;;6.20;4.35;;;;;;;8.09;77.41;98491.25;4954303;28;20122;-87
2022/09/23 02:16:55;;;;;;;4.57;4.15;;;;;;;8.03;77.31;98487.53;4954856;28;20057;-87
2022/09/23 02:19:46;;;;;;;4.45;4.05;;;;;;;8.07;77.29;98478.38;4949080;29;20047;-86
2022/09/23 02:22:28;;;;;;;6.55;4.43;;;;;;;7.97;77.12;98467.34;4935872;29;20437;-87
2022/09/23 02:24:56;;;;;;;5.60;4.30;;;;;;;7.92;77.75;98474.91;4934989;29;20078;-87
2022/09/23 02:27:46;;;;;;;4.57;4.10;;;;;;;7.95;77.82;98479.75;4950080;29;20047;-87
2022/09/23 02:30:30;;;;;;;6.05;4.72;;;;;;;7.87;78.28;98477.22;4941244;29;20039;-87
2022/09/23 02:33:18;;;;;;;4.82;4.22;;;;;;;7.92;78.30;98480.13;4934822;29;20048;-88
2022/09/23 02:35:55;;;;;;;7.97;4.32;;;;;;;7.91;77.96;98479.28;4943647;29;20048;-87
2022/09/23 02:38:36;;;;;;;5.03;4.18;;;;;;;7.79;78.04;98459.78;4935832;29;20658;-87
2022/09/23 02:41:22;;;;;;;4.88;4.38;;;;;;;7.78;77.23;98471.22;4948754;29;20097;-88
2022/09/23 02:44:09;;;;;;;6.35;4.00;;;;;;;7.84;78.27;98480.97;4966689;28;20154;-87
2022/09/23 02:46:37;;;;;;;4.70;4.20;;;;;;;7.73;77.69;98478.75;4953442;29;20075;-87
2022/09/23 02:49:27;;;;;;;4.65;4.03;;;;;;;7.77;77.94;98473.00;4949629;29;20049;-88
2022/09/23 02:51:55;;;;;;;5.53;4.50;;;;;;;7.78;77.48;98479.84;4954414;28;20488;-87
2022/09/23 02:54:26;;;;;;;5.60;4.20;;;;;;;7.71;77.01;98478.91;4951522;29;20051;-88
2022/09/23 02:56:54;;;;;;;5.78;4.35;;;;;;;7.85;77.65;98484.38;4953878;28;20057;-89
2022/09/23 02:59:23;;;;;;;6.07;4.20;;;;;;;7.61;77.54;98465.25;4953932;28;20073;-89
2022/09/23 03:02:03;;;;;;;6.50;4.50;;;;;;;7.78;77.98;98479.84;4953416;28;20149;-89
2022/09/23 03:05:07;;;;;;;8.25;4.70;;;;;;;7.78;77.66;98474.63;4954883;29;20078;-89
2022/09/23 03:08:05;;;;;;;8.75;4.10;;;;;;;7.82;77.34;98469.09;4933725;29;20056;-90
2022/09/23 03:11:03;;;;;;;4.38;3.83;;;;;;;7.82;77.48;98474.31;4934704;29;20432;-89
2022/09/23 03:14:23;;;;;;;4.30;3.83;;;;;;;7.78;77.21;98474.63;4947894;29;20043;-89
2022/09/23 03:17:09;;;;;;;5.25;4.03;;;;;;;7.78;77.40;98476.44;4932254;29;20084;-89
2022/09/23 03:19:54;;;;;;;4.82;4.07;;;;;;;7.67;76.98;98464.56;4952053;29;20065;-90
2022/09/23 03:22:38;;;;;;;5.15;4.35;;;;;;;7.48;76.84;98467.63;4945639;28;20047;-89
2022/09/23 03:25:14;;;;;;;5.25;4.13;;;;;;;7.43;77.92;98464.69;4937001;29;20432;-89
2022/09/23 03:27:44;;;;;;;7.10;4.43;;;;;;;7.50;77.51;98460.44;4953777;28;20036;-89
2022/09/23 03:30:12;;;;;;;5.85;3.80;;;;;;;7.58;77.51;98460.41;4954171;28;20082;-89
2022/09/23 03:32:45;;;;;;;5.07;4.03;;;;;;;7.50;77.71;98453.44;4949731;28;20051;-89
2022/09/23 03:35:13;;;;;;;5.95;4.40;;;;;;;7.52;77.68;98450.66;4961725;28;20540;-89
2022/09/23 03:38:10;;;;;;;6.18;4.47;;;;;;;7.59;77.35;98443.75;4951185;28;20051;-89
2022/09/23 03:40:46;;;;;;;5.88;4.28;;;;;;;7.63;77.53;98447.66;4937311;29;20388;-89
2022/09/23 03:43:13;;;;;;;5.57;4.18;;;;;;;7.51;77.39;98442.00;4953262;28;20082;-89
2022/09/23 03:45:41;;;;;;;5.57;4.32;;;;;;;7.56;77.36;98444.09;4968516;28;20044;-89
2022/09/23 03:48:08;;;;;;;6.38;4.30;;;;;;;7.49;77.40;98430.91;4951194;28;20047;-89
2022/09/23 03:50:38;;;;;;;5.22;4.72;;;;;;;7.43;77.23;98430.78;4953563;29;20057;-88
2022/09/23 03:53:04;;;;;;;6.25;4.55;;;;;;;7.47;77.64;98437.28;4944142;28;20051;-89
2022/09/23 03:55:31;;;;;;;5.15;4.50;;;;;;;7.41;77.82;98430.16;4967479;28;20122;-89
2022/09/23 03:57:59;;;;;;;7.10;5.50;;;;;;;7.43;77.95;98433.38;4954848;28;20075;-90
2022/09/23 04:00:26;;;;;;;9.10;6.30;;;;;;;7.42;77.95;98432.56;4950913;28;20047;-90
2022/09/23 04:02:53;;;;;;;6.88;5.22;;;;;;;7.44;77.40;98419.38;4947483;29;20047;-89
2022/09/23 04:05:20;;;;;;;5.05;4.35;;;;;;;7.50;77.28;98445.59;4953921;28;20098;-89
2022/09/23 04:07:48;;;;;;;4.47;4.07;;;;;;;7.40;77.71;98429.34;4951410;29;20047;-90
2022/09/23 04:10:14;;;;;;;4.35;3.95;;;;;;;7.39;77.71;98427.72;4949385;29;20043;-89
2022/09/23 04:12:41;;;;;;;5.57;4.88;;;;;;;7.31;78.14;98421.72;4934585;29;20499;-89
2022/09/23 04:15:08;;;;;;;4.70;4.30;;;;;;;7.42;78.95;98435.19;4936371;29;20055;-89
2022/09/23 04:17:35;;;;;;;5.13;4.65;;;;;;;7.34;78.85;98424.00;4950339;29;20583;-90
2022/09/23 04:20:02;;;;;;;8.88;4.82;;;;;;;7.38;79.15;98435.72;4952113;28;20043;-90
2022/09/23 04:22:30;;;;;;;6.90;5.28;;;;;;;7.19;78.14;98416.06;4951920;28;20163;-90
2022/09/23 04:24:56;;;;;;;7.07;5.28;;;;;;;7.11;78.58;98414.31;4951333;28;20075;-89
2022/09/23 04:27:23;;;;;;;6.40;4.78;;;;;;;7.19;78.47;98427.28;4953522;28;20048;-90
2022/09/23 04:29:50;;;;;;;6.15;4.70;;;;;;;7.28;78.32;98420.25;4953774;28;20048;-94
2022/09/23 04:32:16;;;;;;;5.72;4.63;;;;;;;7.25;78.30;98421.41;4950662;29;20094;-89
2022/09/23 04:34:43;;;;;;;6.07;4.60;;;;;;;7.27;78.04;98423.06;4952557;28;20118;-89
2022/09/23 04:37:10;;;;;;;4.75;4.25;;;;;;;7.24;77.81;98409.34;4952145;28;20403;-90
2022/09/23 04:39:36;;;;;;;6.47;4.75;;;;;;;7.35;78.18;98436.06;4952187;28;20106;-89
2022/09/23 04:42:03;;;;;;;4.82;4.43;;;;;;;7.30;77.72;98433.13;4951153;28;20058;-92
2022/09/23 04:44:30;;;;;;;5.30;4.30;;;;;;;7.17;78.17;98416.22;4952662;28;20062;-92
2022/09/23 04:46:57;;;;;;;4.30;3.90;;;;;;;7.16;78.51;98406.78;4952966;28;20043;-92
2022/09/23 04:49:25;;;;;;;9.23;4.85;;;;;;;7.18;78.13;98410.03;4950570;28;20491;-93
2022/09/23 04:51:51;;;;;;;5.85;5.03;;;;;;;7.18;78.49;98415.25;4938899;29;20047;-93
2022/09/23 04:54:18;;;;;;;6.15;4.65;;;;;;;7.21;78.24;98409.69;4953405;28;20055;-93
2022/09/23 04:56:45;;;;;;;5.47;4.70;;;;;;;7.20;78.91;98402.88;4935848;29;20071;-92
2022/09/23 04:59:12;;;;;;;5.97;4.95;;;;;;;7.30;79.07;98423.50;4955722;28;20150;-89
2022/09/23 05:01:38;;;;;;;7.72;4.63;;;;;;;7.28;78.99;98402.00;4956560;28;20508;-90
2022/09/23 05:04:10;;;;;;;5.35;4.65;;;;;;;7.40;78.50;98418.09;4951079;28;20036;-91
2022/09/23 05:06:37;;;;;;;5.10;4.45;;;;;;;7.41;78.30;98427.53;4944601;29;20039;-90
2022/09/23 05:09:06;;;;;;;4.60;4.20;;;;;;;7.32;78.28;98415.53;4953625;29;20094;-89
2022/09/23 05:11:34;;;;;;;6.32;4.78;;;;;;;7.40;78.29;98418.09;4952556;28;20063;-89
2022/09/23 05:14:01;;;;;;;4.60;4.20;;;;;;;7.27;77.87;98413.44;4956996;28;20082;-89
2022/09/23 05:16:28;;;;;;;4.75;4.28;;;;;;;7.21;77.69;98420.13;4953428;29;20062;-90
2022/09/23 05:18:56;;;;;;;7.03;4.70;;;;;;;7.02;78.46;98414.50;4956072;29;20056;-90
2022/09/23 05:21:31;;;;;;;4.95;4.38;;;;;;;7.13;78.86;98432.38;4954748;28;20118;-90
2022/09/23 05:23:59;;;;;;;6.75;4.45;;;;;;;6.94;78.36;98413.53;4966743;28;20508;-90
2022/09/23 05:26:30;;;;;;;7.63;4.80;;;;;;;7.06;78.44;98414.00;4946726;29;20062;-89
2022/09/23 05:28:58;;;;;;;5.47;4.57;;;;;;;7.11;78.61;98418.72;4956288;28;20145;-89
2022/09/23 05:31:29;;;;;;;5.72;4.65;;;;;;;7.27;78.25;98433.50;4942732;29;20058;-89
2022/09/23 05:34:02;;;;;;;5.90;4.50;;;;;;;7.25;77.95;98424.00;4964700;28;20121;-89
2022/09/23 05:36:32;;;;;;;5.32;4.40;;;;;;;7.28;78.06;98433.31;4950614;28;20103;-89
2022/09/23 05:39:06;;;;;;;5.65;5.03;;;;;;;7.37;77.75;98434.06;4954987;28;20054;-90
2022/09/23 05:41:33;;;;;;;5.97;4.82;;;;;;;7.33;78.09;98435.41;4953115;29;20078;-89
2022/09/23 05:44:01;;;;;;;4.88;4.47;;;;;;;7.40;77.68;98438.97;4954863;28;20075;-88
2022/09/23 05:46:30;;;;;;;7.05;4.65;;;;;;;7.46;77.48;98443.50;4937126;29;20166;-89
2022/09/23 05:48:59;;;;;;;7.32;5.10;;;;;;;7.35;77.81;98426.41;4943024;29;20126;-89
2022/09/23 05:51:30;;;;;;;6.47;5.15;;;;;;;7.41;77.64;98430.16;4969069;28;20500;-89
2022/09/23 05:53:59;;;;;;;7.63;5.93;;;;;;;7.55;77.87;98434.63;4954204;28;20054;-89
2022/09/23 05:56:27;;;;;;;7.88;5.97;;;;;;;7.57;77.12;98440.50;4952395;29;20047;-89
2022/09/23 05:58:57;;;;;;;6.50;5.57;;;;;;;7.57;76.81;98440.50;4954877;28;20074;-89
2022/09/23 06:01:27;;;;;;;8.80;6.18;;;;;;;7.59;77.05;98441.13;4953993;28;20062;-90
2022/09/23 06:03:56;;;;;;;6.20;5.25;;;;;;;7.55;77.13;98442.47;4954616;28;20069;-90
2022/09/23 06:06:30;;;;;;;6.03;4.95;;;;;;;7.59;77.15;98425.47;4952572;29;20047;-89
2022/09/23 06:08:58;;;;;;;6.40;5.20;;;;;;;7.64;77.31;98435.41;4934151;29;20496;-89
2022/09/23 06:11:29;;;;;;;6.72;5.68;;;;;;;7.64;77.27;98430.19;4936858;29;20051;-90
2022/09/23 06:13:59;;;;;;;9.50;5.57;;;;;;;7.76;77.85;98440.06;4954150;28;20397;-88
2022/09/23 06:16:28;;;;;;;5.35;4.68;;;;;;;7.73;78.10;98423.91;4954208;28;20331;-88
2022/09/23 06:18:56;;;;;;;7.13;5.32;;;;;;;7.86;77.94;98432.00;4953203;28;20138;-89
2022/09/23 06:21:27;;;;;;;5.78;5.18;;;;;;;8.00;78.22;98435.66;4934838;29;20044;-89
2022/09/23 06:23:55;;;;;;;7.57;4.60;;;;;;;8.12;77.52;98442.09;4945943;29;20051;-89
2022/09/23 06:26:22;;;;;;;6.03;5.38;;;;;;;8.06;77.14;98419.28;4952924;28;20130;-88
2022/09/23 06:28:49;;;;;;;8.57;5.15;;;;;;;8.15;77.32;98427.84;4953784;28;20061;-90
2022/09/23 06:31:16;;;;;;;5.43;4.93;;;;;;;8.28;77.38;98434.13;4953675;28;20566;-89
2022/09/23 06:33:44;;;;;;;7.57;5.40;;;;;;;8.29;77.22;98435.75;4954608;29;20058;-89
2022/09/23 06:36:14;;;;;;;6.70;5.15;;;;;;;8.32;76.91;98419.69;4954253;28;20363;-89
2022/09/23 06:39:01;;;;;;;6.47;5.70;;;;;;;8.41;76.58;98422.28;4948641;29;20527;-89
2022/09/23 06:41:28;;;;;;;6.72;4.88;;;;;;;8.60;76.43;98436.66;4952108;29;20096;-89
2022/09/23 06:43:54;;;;;;;5.85;4.72;;;;;;;8.65;75.87;98427.28;4954921;28;20043;-89
2022/09/23 06:46:21;;;;;;;5.63;4.80;;;;;;;8.80;75.59;98433.31;4953861;28;20059;-89
2022/09/23 06:48:49;;;;;;;7.47;5.32;;;;;;;8.94;75.28;98436.13;4951001;28;20031;-89
2022/09/23 06:51:23;;;;;;;6.47;5.35;;;;;;;9.02;74.61;98426.38;4954505;28;20047;-88
2022/09/23 06:53:49;;;;;;;6.85;5.80;;;;;;;9.28;74.42;98436.38;4949713;28;20047;-90
2022/09/23 06:56:18;;;;;;;7.00;5.63;;;;;;;9.31;73.77;98430.78;4967396;28;20847;-89
2022/09/23 06:58:53;;;;;;;7.43;5.60;;;;;;;9.50;74.76;98444.28;4943852;29;20036;-89
2022/09/23 07:01:21;;;;;;;6.88;5.88;;;;;;;9.56;74.07;98439.13;4948795;29;20088;-89
2022/09/23 07:03:48;;;;;;;9.55;5.70;;;;;;;9.67;72.97;98439.63;4953986;29;20511;-90
2022/09/23 07:06:16;;;;;;;7.82;6.10;;;;;;;9.79;73.68;98435.53;4951558;29;20067;-90
2022/09/23 07:08:48;;;;;;;7.38;5.78;;;;;;;9.79;73.17;98428.50;4955202;28;20075;-90
2022/09/23 07:11:15;;;;;;;7.28;5.63;;;;;;;10.09;74.76;98428.38;4954390;28;20074;-90
2022/09/23 07:13:42;;;;;;;8.43;6.13;;;;;;;10.22;74.27;98418.00;4954029;29;20130;-90
2022/09/23 07:16:10;;;;;;;6.88;5.63;;;;;;;10.26;71.39;98416.66;4953886;29;20502;-91
2022/09/23 07:18:37;;;;;;;7.05;6.28;;;;;;;10.46;73.03;98429.91;4954463;28;20051;-90
2022/09/23 07:21:14;;;;;;;9.25;5.82;;;;;;;10.45;71.33;98423.84;4952943;29;20049;-91
2022/09/23 07:23:46;;;;;;;7.75;5.88;;;;;;;10.74;72.94;98424.66;4954870;28;20403;-91
2022/09/23 07:26:15;;;;;;;9.77;5.80;;;;;;;10.84;71.83;98430.34;4968055;28;20074;-91
2022/09/23 07:28:42;;;;;;;6.78;5.63;;;;;;;10.99;71.43;98432.88;4953017;29;20852;-90
2022/09/23 07:31:13;;;;;;;8.13;6.40;;;;;;;10.92;70.35;98413.66;4953127;28;20071;-90
2022/09/23 07:33:42;;;;;;;8.02;6.00;;;;;;;11.20;72.08;98421.47;4952787;28;20054;-90
2022/09/23 07:36:16;;;;;;;7.65;6.18;;;;;;;11.38;71.59;98421.72;4954513;29;20109;-90
2022/09/23 07:38:46;;;;;;;7.38;6.13;;;;;;;11.55;70.81;98421.38;4954558;28;20116;-93
2022/09/23 07:41:18;;;;;;;6.72;6.13;;;;;;;11.59;70.04;98406.84;4950739;29;20067;-90
2022/09/23 07:43:46;;;;;;;8.50;5.97;;;;;;;11.75;70.65;98430.97;4956257;28;20486;-90
2022/09/23 07:46:16;;;;;;;7.15;5.85;;;;;;;11.64;69.15;98425.47;4956141;28;20074;-90
2022/09/23 07:48:44;;;;;;;8.40;6.63;;;;;;;11.65;69.11;98430.53;4942921;29;20131;-91
2022/09/23 07:51:32;;;;;;;9.13;6.05;;;;;;;11.95;68.67;98433.66;4955114;28;20543;-91
2022/09/23 07:54:04;;;;;;;9.10;5.90;;;;;;;11.95;68.47;98425.75;4961907;28;20047;-88
2022/09/23 07:56:30;;;;;;;9.52;6.38;;;;;;;12.18;69.28;98432.47;4953662;29;20428;-90
2022/09/23 07:59:01;;;;;;;6.90;5.50;;;;;;;12.30;67.92;98412.44;4968368;28;20067;-88
2022/09/23 08:01:39;;;;;;;6.43;5.82;;;;;;;12.51;67.74;98425.38;4951708;29;20137;-89
2022/09/23 08:04:28;;;;;;;6.82;5.60;;;;;;;12.18;66.42;98419.31;4951484;29;20050;-90
2022/09/23 08:07:04;;;;;;;7.53;6.32;;;;;;;12.52;67.81;98421.72;4949009;29;20043;-88
2022/09/23 08:09:40;;;;;;;6.70;6.05;;;;;;;12.54;65.73;98419.72;4966939;28;20569;-90
2022/09/23 08:12:10;;;;;;;7.10;5.28;;;;;;;12.74;67.93;98406.50;4948873;28;20040;-90
2022/09/23 08:14:42;;;;;;;6.85;4.90;;;;;;;12.64;64.85;98426.38;4951511;29;20051;-90
2022/09/23 08:17:11;;;;;;;5.95;5.07;;;;;;;12.84;67.08;98408.72;4952842;29;20047;-90
2022/09/23 08:19:37;;;;;;;5.45;4.95;;;;;;;12.97;64.63;98418.41;4968424;28;20047;-90
2022/09/23 08:22:04;;;;;;;5.35;4.25;;;;;;;13.08;66.74;98399.34;4953901;28;20199;-91
2022/09/23 08:24:32;;;;;;;4.75;4.25;;;;;;;13.40;64.90;98405.53;4952870;28;20538;-90
2022/09/23 08:26:58;;;;;;;5.80;4.57;;;;;;;13.70;64.01;98400.50;4953415;28;20047;-90
2022/09/23 08:29:25;;;;;;;5.68;4.30;;;;;;;13.62;62.26;98398.13;4951173;29;20055;-91
2022/09/23 08:31:53;;;;;;;5.18;4.28;;;;;;;13.52;63.04;98405.66;4953205;28;20097;-90
2022/09/23 08:34:21;;;;;;;5.07;4.32;;;;;;;13.32;63.49;98389.97;4953496;28;20138;-92
2022/09/23 08:36:51;;;;;;;4.35;3.95;;;;;;;13.40;66.77;98397.63;4968751;28;20043;-91
2022/09/23 08:39:21;;;;;;;;;;;;;;;13.60;63.65;98408.84;4950938;28;20040;-90
2022/09/23 08:41:51;;;;;;;4.78;4.00;;;;;;;13.51;62.03;98402.22;4958877;28;19937;-89
2022/09/23 08:44:47;;;;;;;8.43;3.95;;;;;;;13.47;63.03;98387.84;4949289;28;20774;-88
2022/09/23 08:47:23;;;;;;;4.85;3.63;;;;;;;13.80;62.36;98405.31;4951075;29;20612;-88
2022/09/23 08:50:05;;;;;;;3.80;3.50;;;;;;;13.91;60.74;98388.78;4959057;28;20064;-87
2022/09/23 08:52:58;;;;;;;5.35;4.28;;;;;;;13.82;63.11;98380.34;4951401;29;20134;-87
2022/09/23 08:55:44;;;;;;;5.18;3.80;;;;;;;14.00;63.73;98397.25;4946332;28;20067;-86
2022/09/23 08:58:48;;;;;;;6.78;4.03;;;;;;;14.30;60.27;98394.78;4961335;28;20103;-87
2022/09/23 09:01:46;;;;;;;4.80;3.83;;;;;;;14.68;62.36;98395.47;4944619;28;20050;-87
2022/09/23 09:04:32;;;;;;;4.90;3.90;;;;;;;14.53;57.97;98387.13;4947599;28;20075;-88
2022/09/23 09:07:16;;;;;;;4.90;4.10;;;;;;;14.53;59.67;98381.84;4946364;28;20522;-90
2022/09/23 09:10:19;;;;;;;4.22;3.83;;;;;;;14.75;61.44;98381.41;4950585;28;20523;-95
2022/09/23 09:13:01;;;;;;;5.75;3.75;;;;;;;14.84;57.27;98374.81;4962862;28;20067;-91
2022/09/23 09:15:50;;;;;;;4.30;3.90;;;;;;;14.82;60.62;98376.88;4949950;28;20052;-90
2022/09/23 09:18:21;;;;;;;3.88;3.47;;;;;;;14.64;57.38;98352.09;4960496;28;20059;-90
2022/09/23 09:21:17;;;;;;;4.50;3.65;;;;;;;14.74;58.64;98362.13;4945072;28;20651;-92
2022/09/23 09:24:01;;;;;;;4.00;3.30;;;;;;;14.97;57.20;98364.91;4947878;28;20491;-91
2022/09/23 09:26:52;;;;;;;3.40;3.10;;;;;;;15.11;57.75;98349.69;4965100;28;20122;-91
2022/09/23 09:29:32;;;;;;;4.00;3.15;;;;;;;15.31;57.70;98362.66;4947121;29;20047;-90
2022/09/23 09:32:28;;;;;;;4.50;3.60;;;;;;;15.46;57.42;98359.63;4933630;29;20146;-92
2022/09/23 09:35:19;;;;;;;4.13;3.33;;;;;;;15.61;55.93;98360.03;4949268;28;20513;-90
2022/09/23 09:37:49;;;;;;;;;;;;;;;15.68;53.44;98378.47;4970326;28;20054;-90
2022/09/23 09:40:29;;;;;;;3.90;2.83;;;;;;;15.60;56.35;98339.91;4949143;29;19930;-93
2022/09/23 09:43:23;;;;;;;2.97;2.67;;;;;;;15.78;56.58;98353.09;4967350;28;20150;-90
2022/09/23 09:46:21;;;;;;;5.25;2.90;;;;;;;16.06;54.67;98359.56;4953048;29;20047;-89
2022/09/23 09:49:00;;;;;;;2.97;2.42;;;;;;;16.17;51.49;98350.84;4952563;29;20058;-90
2022/09/23 09:51:51;;;;;;;;;;;;;;;;;;;;;
2022/09/23 09:54:35;;;;;;;;;;;;;;;;;;;;;
2022/09/23 09:57:49;;;;;;;3.30;3.00;;;;;;;16.24;51.13;98338.28;4956771;28;20490;-92
2022/09/23 10:00:35;;;;;;;3.00;2.70;;;;;;;16.21;51.86;98330.84;4959350;28;20527;-91
2022/09/23 10:03:29;;;;;;;2.90;2.70;;;;;;;16.29;50.19;98343.72;4950616;29;20052;-91
2022/09/23 10:06:31;;;;;;;2.67;2.47;;;;;;;16.30;49.21;98345.31;4967753;28;20040;-91
2022/09/23 10:09:00;;;;;;;2.65;2.38;;;;;;;16.45;50.27;98330.81;4971262;28;20410;-91
2022/09/23 10:11:36;;;;;;;2.90;2.42;;;;;;;16.47;48.82;98307.56;4937761;29;20047;-93
2022/09/23 10:14:29;;;;;;;;;;;;;;;;;;;;;
2022/09/23 10:17:40;;;;;;;2.25;2.05;;;;;;;16.77;47.82;98308.22;4962810;28;20055;-96
2022/09/23 10:20:13;;;;;;;2.90;2.22;;;;;;;17.01;50.94;98324.06;4962779;29;20491;-96
2022/09/23 10:23:24;;;;;;;2.88;2.08;;;;;;;16.80;50.66;98301.69;4962901;29;20043;-95
2022/09/23 10:26:15;;;;;;;2.70;2.25;;;;;;;17.13;47.91;98316.88;4967361;28;20059;-91
2022/09/23 10:29:39;;;;;;;2.10;1.85;;;;;;;17.13;47.92;98312.38;4966800;29;20423;-95
2022/09/23 10:32:50;;;;;;;2.67;2.30;;;;;;;17.10;43.34;98296.16;4949114;28;20081;-96
2022/09/23 10:35:33;;;;;;;8.25;3.70;;;;;;;17.06;46.66;98285.22;4973719;28;20067;-96
2022/09/23 10:38:16;;;;;;;4.32;2.75;;;;;;;17.11;44.28;98305.72;4958956;28;20051;-94
2022/09/23 10:48:09;;;;;;;5.50;2.30;;;;;;;17.39;44.69;98286.34;4959748;28;20047;-95
2022/09/23 10:52:03;;;;;;;3.28;1.90;;;;;;;17.57;45.50;98298.56;4948679;28;20145;-96
2022/09/23 10:55:36;;;;;;;2.08;1.90;;;;;;;17.73;44.59;98286.41;4967744;28;20125;-96
2022/09/23 10:59:02;;;;;;;1.95;1.85;;;;;;;17.76;44.57;98272.69;4951273;28;20051;-93
2022/09/23 11:01:47;;;;;;;2.03;1.73;;;;;;;17.69;42.67;98280.72;4957500;29;20503;-93
2022/09/23 11:05:28;;;;;;;1.90;1.80;;;;;;;17.74;42.63;98259.63;4957493;28;20146;-94
2022/09/23 11:08:37;;;;;;;1.85;1.75;;;;;;;17.77;45.07;98264.47;4967478;29;20043;-96
2022/09/23 11:11:27;;;;;;;1.98;1.77;;;;;;;18.01;43.82;98270.41;5283519;23;20048;-96
2022/09/23 12:02:59;;;;;;;;;;;;;;;18.20;43.68;98215.19;5005571;23;20124;-96
2022/09/23 12:10:57;;;;;;;;;;;;;;;;;;;;;
2022/09/23 12:18:04;;;;;;;2.20;1.73;;;;;;;18.30;42.14;98183.47;4930147;29;20173;-94
2022/09/23 12:21:52;;;;;;;1.83;1.73;;;;;;;18.20;37.91;98186.00;4854454;29;20136;-92
2022/09/23 12:24:56;;;;;;;;;;;;;;;;;;;;;
2022/09/23 12:27:44;;;;;;;1.70;1.60;;;;;;;18.42;41.52;98188.66;4859843;29;20053;-92
2022/09/23 12:30:52;;;;;;;2.22;1.77;;;;;;;18.84;40.77;98193.41;4843026;29;20061;-92
2022/09/23 12:33:31;;;;;;;2.13;1.77;;;;;;;18.79;40.11;98191.47;4864354;29;20056;-91
2022/09/23 12:36:11;;;;;;;2.05;1.85;;;;;;;18.71;39.71;98182.13;4860548;29;20050;-93
2022/09/23 12:38:50;;;;;;;2.97;1.80;;;;;;;18.81;38.74;98178.75;4943353;28;20081;-92
2022/09/23 12:41:36;;;;;;;1.60;1.50;;;;;;;18.64;37.93;98189.41;4955363;29;20067;-93
2022/09/23 12:44:11;;;;;;;1.52;1.42;;;;;;;18.70;39.44;98177.03;4942406;28;20529;-92
2022/09/23 12:47:24;;;;;;;;;;;;;;;;;;;;;
2022/09/23 12:50:04;;;;;;;1.70;1.60;;;;;;;18.33;39.42;98169.69;4953084;29;20039;-93
2022/09/23 12:52:51;;;;;;;1.73;1.63;;;;;;;18.39;40.31;98160.72;4956850;28;20052;-91
2022/09/23 12:55:33;;;;;;;;;;;;;;;;;;;;;
2022/09/23 12:59:26;;;;;;;2.20;2.00;;;;;;;18.77;38.97;98164.34;4957119;29;20138;-95
2022/09/23 13:06:37;;;;;;;3.05;1.55;;;;;;;19.03;38.17;98161.94;4954574;28;20068;-92
2022/09/23 13:09:03;;;;;;;2.38;1.90;;;;;;;18.74;37.72;98146.25;4954455;28;20055;-95
2022/09/23 13:11:49;;;;;;;2.47;1.80;;;;;;;18.77;38.15;98145.75;4973927;28;20138;-91
2022/09/23 13:14:24;;;;;;;1.70;1.60;;;;;;;18.92;40.78;98151.22;4969282;28;20098;-96
2022/09/23 13:21:50;;;;;;;2.45;1.80;;;;;;;19.60;37.67;98137.41;5068023;23;20259;-94
2022/09/23 13:24:36;;;;;;;3.00;1.60;;;;;;;19.88;42.78;98137.03;4973088;28;20042;-96
2022/09/23 13:30:36;;;;;;;1.80;1.60;;;;;;;20.24;37.34;98121.22;4151041;23;20021;-94
2022/09/23 14:42:43;;;;;;;1.92;1.83;;;;;;;21.33;41.47;98064.06;4779153;26;20039;-91
2022/09/23 14:45:46;;;;;;;2.17;1.80;;;;;;;21.26;39.08;98063.50;4976692;28;20434;-92
2022/09/23 14:48:35;;;;;;;1.88;1.77;;;;;;;21.20;34.47;98058.44;4953358;28;20427;-93
2022/09/23 14:51:11;;;;;;;2.05;1.90;;;;;;;20.93;36.84;98067.56;4956250;28;20051;-92
2022/09/23 14:53:45;;;;;;;2.10;1.90;;;;;;;20.71;35.08;98045.69;4974036;28;20173;-92
2022/09/23 14:56:49;;;;;;;2.33;1.98;;;;;;;20.76;41.81;98040.38;4942919;28;20498;-94
2022/09/23 14:59:37;;;;;;;4.00;2.08;;;;;;;21.28;36.40;98049.91;4974178;28;20039;-93
2022/09/23 15:02:44;;;;;;;3.53;2.15;;;;;;;20.76;35.32;98038.50;4939692;29;20178;-93
2022/09/23 15:05:18;;;;;;;2.08;1.85;;;;;;;21.28;41.77;98065.91;4972078;28;20051;-92
2022/09/23 15:07:59;;;;;;;2.40;2.15;;;;;;;21.00;40.16;98044.09;4958189;28;20051;-92
2022/09/23 15:10:38;;;;;;;2.97;2.20;;;;;;;20.78;36.08;98035.56;4974316;28;20558;-92
2022/09/23 15:13:22;;;;;;;2.25;2.05;;;;;;;20.51;37.01;98041.13;4942654;28;20066;-91